Time;durP1;ratioP1;P1;durP2;ratioP2;P2;SDS_P1;SDS_P2;PMS_P1;PMS_P2;Temp;Humidity;BMP_temperature;BMP_pressure;BME280_temperature;BME280_humidity;BME280_pressure;Samples;Min_cycle;Max_cycle;Signal;HPM_P1;HPM_P2
2023/05/07 00:02:03;;;;;;;12.07;10.77;;;14.20;76.00;;;16.70;53.18;101925.88;5034566;28;20190;-65
2023/05/07 00:04:36;;;;;;;12.10;10.97;;;14.20;76.20;;;16.72;52.98;101929.19;5033900;28;20215;-66
2023/05/07 00:07:05;;;;;;;12.00;10.73;;;14.20;76.10;;;16.72;53.12;101923.03;5033590;28;20186;-66
2023/05/07 00:09:32;;;;;;;13.00;11.70;;;14.20;76.20;;;16.72;53.16;101931.84;5033764;28;20641;-66
2023/05/07 00:11:59;;;;;;;11.57;10.33;;;14.20;76.20;;;16.73;53.24;101922.03;5033647;28;20585;-65
2023/05/07 00:14:26;;;;;;;12.60;11.30;;;14.20;76.10;;;16.76;53.17;101916.31;5033197;28;20226;-65
2023/05/07 00:16:53;;;;;;;12.80;11.60;;;14.20;76.30;;;16.75;53.14;101917.34;5034077;28;20202;-65
2023/05/07 00:19:21;;;;;;;12.87;11.57;;;14.10;76.20;;;16.75;53.11;101917.34;5017020;28;20198;-65
2023/05/07 00:21:48;;;;;;;12.27;11.13;;;14.20;76.40;;;16.75;53.11;101917.34;5034076;28;20553;-64
2023/05/07 00:24:16;;;;;;;13.40;12.00;;;14.20;76.50;;;16.78;52.81;101916.97;5033450;28;20568;-67
2023/05/07 00:26:43;;;;;;;12.23;11.03;;;14.20;76.40;;;16.74;53.02;101911.19;5033705;28;20198;-64
2023/05/07 00:29:10;;;;;;;13.23;11.87;;;14.20;76.20;;;16.73;52.80;101912.22;5034302;28;20195;-66
2023/05/07 00:31:37;;;;;;;12.73;10.93;;;14.20;76.20;;;16.74;53.06;101907.72;5033139;28;20202;-66
2023/05/07 00:34:04;;;;;;;14.07;11.67;;;14.10;76.40;;;16.77;53.26;101920.63;5033793;28;20269;-66
2023/05/07 00:36:31;;;;;;;11.13;10.07;;;14.20;76.60;;;16.80;52.89;101914.97;5034155;28;20190;-66
2023/05/07 00:39:01;;;;;;;13.07;11.77;;;14.20;76.40;;;16.71;53.00;101908.09;5034074;28;20214;-65
2023/05/07 00:41:33;;;;;;;12.80;11.60;;;14.10;76.10;;;16.59;52.98;101917.56;5033360;28;20183;-66
2023/05/07 00:44:00;;;;;;;12.10;10.73;;;14.10;75.90;;;16.52;53.24;101919.31;5032482;28;20206;-65
2023/05/07 00:46:27;;;;;;;13.40;12.00;;;14.10;76.10;;;16.44;53.62;101920.19;5033668;28;20253;-66
2023/05/07 00:48:54;;;;;;;15.47;13.97;;;14.00;76.20;;;16.31;53.80;101917.31;5033691;28;20700;-64
2023/05/07 00:51:25;;;;;;;11.90;10.77;;;13.90;76.30;;;16.21;54.06;101922.91;5033918;28;20194;-65
2023/05/07 00:53:52;;;;;;;11.97;10.70;;;13.90;76.60;;;16.25;54.06;101920.72;5032820;28;20207;-66
2023/05/07 00:56:21;;;;;;;12.73;11.37;;;13.80;76.60;;;16.18;54.01;101925.94;5033796;28;20191;-65
2023/05/07 00:58:49;;;;;;;13.23;11.97;;;13.80;76.60;;;16.03;54.31;101916.28;5033506;28;20666;-65
2023/05/07 01:01:16;;;;;;;12.30;11.13;;;13.70;76.70;;;15.90;54.77;101916.91;5033604;28;20201;-64
2023/05/07 01:03:44;;;;;;;10.73;9.73;;;13.60;76.80;;;15.85;55.04;101919.31;5032972;28;20222;-66
2023/05/07 01:06:16;;;;;;;12.03;10.87;;;13.60;77.00;;;15.93;54.80;101921.03;5033476;28;20227;-65
2023/05/07 01:08:44;;;;;;;14.03;12.63;;;13.60;77.40;;;15.84;54.89;101917.63;5032786;28;20261;-65
2023/05/07 01:11:12;;;;;;;14.57;13.07;;;13.50;77.40;;;15.78;54.81;101918.38;5033424;28;20198;-65
2023/05/07 01:13:41;;;;;;;13.90;12.60;;;13.40;77.60;;;15.79;55.29;101920.00;5033272;28;20581;-65
2023/05/07 01:16:10;;;;;;;13.07;11.60;;;13.50;77.90;;;15.85;54.92;101923.78;5018008;28;20199;-66
2023/05/07 01:18:37;;;;;;;12.50;11.30;;;13.50;77.80;;;15.92;54.94;101917.56;5034086;28;20187;-65
2023/05/07 01:21:06;;;;;;;14.27;12.80;;;13.40;78.00;;;16.01;54.59;101924.47;5048736;28;20225;-65
2023/05/07 01:23:35;;;;;;;13.30;11.90;;;13.50;78.20;;;16.01;54.59;101926.28;5032644;28;20199;-65
2023/05/07 01:26:02;;;;;;;13.43;12.03;;;13.50;78.00;;;15.95;54.65;101927.81;5032502;28;20194;-66
2023/05/07 01:28:29;;;;;;;12.77;11.23;;;13.50;77.90;;;16.01;54.73;101924.47;5033012;28;20200;-65
2023/05/07 01:31:03;;;;;;;12.50;11.20;;;13.50;78.00;;;16.08;54.73;101921.91;5032965;28;20194;-65
2023/05/07 01:33:35;;;;;;;13.03;11.73;;;13.50;78.00;;;16.15;54.31;101921.00;5032604;28;20206;-65
2023/05/07 01:36:06;;;;;;;12.80;11.50;;;13.50;77.80;;;16.22;54.13;101918.44;5033235;28;20554;-65
2023/05/07 01:38:36;;;;;;;13.37;12.07;;;13.50;77.80;;;16.21;54.04;101914.13;5033496;28;20183;-65
2023/05/07 01:41:03;;;;;;;12.13;10.90;;;13.60;77.70;;;16.21;53.76;101914.94;5033225;28;20202;-65
2023/05/07 01:43:30;;;;;;;13.67;12.27;;;13.60;77.50;;;16.17;53.99;101907.53;5033380;28;20183;-65
2023/05/07 01:46:00;;;;;;;13.73;12.43;;;13.60;77.30;;;16.12;53.79;101924.00;5034043;28;20594;-65
2023/05/07 01:48:27;;;;;;;11.83;10.57;;;13.60;77.30;;;16.04;54.06;101918.78;5035310;28;20229;-65
2023/05/07 01:50:55;;;;;;;13.40;11.10;;;13.50;77.10;;;16.00;54.33;101917.47;5035763;28;20232;-66
2023/05/07 01:53:22;;;;;;;13.13;11.77;;;13.50;77.20;;;16.01;54.46;101921.81;5035383;28;20213;-65
2023/05/07 01:55:50;;;;;;;13.93;11.73;;;13.50;77.40;;;16.05;54.23;101916.94;5034110;28;20659;-65
2023/05/07 01:58:17;;;;;;;11.73;10.63;;;13.50;77.60;;;16.09;54.12;101927.00;5033685;28;20531;-65
2023/05/07 02:00:44;;;;;;;11.80;10.60;;;13.50;77.50;;;16.11;53.97;101925.03;5033542;28;20198;-65
2023/05/07 02:03:11;;;;;;;13.17;11.53;;;13.50;77.40;;;16.14;53.82;101923.84;5033256;28;20198;-66
2023/05/07 02:05:38;;;;;;;12.33;11.07;;;13.50;77.30;;;16.12;53.75;101921.34;5035101;28;20228;-66
2023/05/07 02:08:05;;;;;;;12.20;10.93;;;13.50;77.30;;;16.13;53.46;101917.69;5036478;28;20546;-66
2023/05/07 02:10:32;;;;;;;13.17;11.87;;;13.50;77.20;;;16.15;53.83;101925.47;5036789;28;20205;-65
2023/05/07 02:13:01;;;;;;;13.00;11.73;;;13.50;77.40;;;16.08;53.72;101930.69;5037031;28;20204;-64
2023/05/07 02:15:28;;;;;;;11.60;10.50;;;13.40;76.90;;;16.03;53.79;101926.91;5036718;28;20671;-64
2023/05/07 02:18:01;;;;;;;13.57;11.07;;;13.40;77.00;;;15.90;53.51;101932.03;5036815;28;20197;-65
2023/05/07 02:20:28;;;;;;;12.70;11.40;;;13.40;76.60;;;15.77;54.22;101927.31;5036885;28;20584;-65
2023/05/07 02:22:56;;;;;;;13.20;11.87;;;13.30;76.80;;;15.56;54.63;101927.16;5036277;28;20191;-65
2023/05/07 02:25:23;;;;;;;11.83;10.57;;;13.20;77.10;;;15.32;54.86;101933.44;5036519;28;20214;-65
2023/05/07 02:27:50;;;;;;;12.93;11.63;;;13.10;77.30;;;15.31;55.71;101930.94;5036603;28;20209;-65
2023/05/07 02:30:19;;;;;;;11.93;10.63;;;13.00;77.70;;;15.34;55.30;101930.59;5035994;28;20202;-65
2023/05/07 02:32:46;;;;;;;15.50;12.70;;;13.00;77.90;;;15.24;55.68;101927.34;5036014;28;20210;-65
2023/05/07 02:35:13;;;;;;;12.83;11.57;;;12.90;78.00;;;15.18;55.88;101926.25;5036506;28;20234;-64
2023/05/07 02:37:40;;;;;;;13.57;12.27;;;12.90;78.30;;;15.08;56.03;101924.81;5036397;28;20187;-64
2023/05/07 02:40:08;;;;;;;11.93;10.73;;;12.80;78.60;;;15.12;56.12;101916.31;5015588;28;20615;-65
2023/05/07 02:42:36;;;;;;;14.00;11.83;;;12.80;78.90;;;15.05;56.10;101919.88;5016567;28;20195;-65
2023/05/07 02:45:04;;;;;;;15.90;10.73;;;12.70;79.00;;;15.08;56.15;101927.44;5016962;28;20211;-64
2023/05/07 02:47:32;;;;;;;12.90;11.60;;;12.70;79.20;;;15.14;56.13;101929.44;5036488;28;20199;-66
2023/05/07 02:49:59;;;;;;;12.43;11.17;;;12.70;79.50;;;15.18;55.93;101934.19;5036489;28;20214;-65
2023/05/07 02:52:26;;;;;;;13.87;12.13;;;12.70;79.30;;;15.09;56.19;101939.72;5036016;28;20190;-65
2023/05/07 02:54:53;;;;;;;11.50;10.23;;;12.70;79.40;;;15.17;56.18;101940.50;5036065;28;20229;-65
2023/05/07 02:57:20;;;;;;;14.30;11.20;;;12.70;79.30;;;15.23;56.05;101934.50;5036501;28;20198;-65
2023/05/07 02:59:47;;;;;;;13.57;12.17;;;12.70;79.60;;;15.31;55.66;101936.25;5036121;28;20190;-65
2023/05/07 03:02:14;;;;;;;13.17;11.13;;;12.70;79.50;;;15.37;55.55;101935.56;5036223;28;20557;-65
2023/05/07 03:04:42;;;;;;;15.07;12.80;;;12.80;79.60;;;15.38;55.60;101940.69;5035655;28;20210;-65
2023/05/07 03:07:09;;;;;;;12.67;11.33;;;12.80;79.50;;;15.41;55.61;101942.16;5035238;28;20241;-65
2023/05/07 03:09:36;;;;;;;12.60;11.30;;;12.80;79.30;;;15.46;55.15;101945.16;5035809;28;20191;-65
2023/05/07 03:12:03;;;;;;;12.83;10.77;;;12.80;79.20;;;15.48;55.34;101945.78;5036025;28;20195;-65
2023/05/07 03:14:30;;;;;;;13.17;11.27;;;12.90;79.30;;;15.44;55.29;101947.13;5034837;28;20225;-65
2023/05/07 03:16:57;;;;;;;11.47;10.30;;;12.90;79.00;;;15.45;55.27;101948.81;5034903;28;20197;-65
2023/05/07 03:19:24;;;;;;;12.13;10.93;;;12.90;78.80;;;15.45;55.35;101943.50;5036001;28;20198;-65
2023/05/07 03:21:52;;;;;;;11.87;10.67;;;12.90;78.80;;;15.46;55.15;101939.84;5036161;28;20269;-64
2023/05/07 03:24:19;;;;;;;12.90;11.60;;;12.90;78.80;;;15.46;55.15;101942.50;5035697;28;20214;-65
2023/05/07 03:26:46;;;;;;;12.33;10.73;;;12.90;78.80;;;15.48;55.04;101943.13;5036121;28;20187;-65
2023/05/07 03:29:13;;;;;;;12.77;10.90;;;12.90;78.80;;;15.47;55.17;101952.13;5036073;28;20202;-64
2023/05/07 03:31:40;;;;;;;12.23;10.93;;;12.90;78.80;;;15.48;55.09;101940.50;5035963;28;20195;-64
2023/05/07 03:34:07;;;;;;;13.50;10.70;;;12.90;78.80;;;15.54;55.33;101942.44;5034904;28;20214;-64
2023/05/07 03:36:34;;;;;;;12.03;10.83;;;12.90;79.10;;;15.56;54.86;101929.81;5035360;28;20598;-64
2023/05/07 03:39:02;;;;;;;11.93;10.40;;;13.00;79.00;;;15.55;54.94;101938.78;5035431;28;20199;-64
2023/05/07 03:41:29;;;;;;;12.43;11.20;;;12.90;78.60;;;15.51;54.70;101942.78;5035442;28;20195;-65
2023/05/07 03:43:56;;;;;;;11.53;10.33;;;12.90;78.60;;;15.38;55.39;101937.22;5035085;28;20604;-65
2023/05/07 03:46:25;;;;;;;11.10;10.00;;;12.90;78.60;;;15.42;55.36;101927.91;5035521;28;20194;-64
2023/05/07 03:48:53;;;;;;;11.67;10.17;;;12.90;78.80;;;15.42;55.02;101927.91;5034873;28;20194;-65
2023/05/07 03:51:20;;;;;;;11.27;9.60;;;12.90;78.70;;;15.45;55.16;101935.56;5035393;28;20195;-64
2023/05/07 03:53:47;;;;;;;11.60;10.33;;;12.90;78.70;;;15.43;54.90;101935.69;5034911;28;20696;-65
2023/05/07 03:56:15;;;;;;;12.10;10.47;;;12.90;78.50;;;15.43;55.37;101945.47;5035258;28;20655;-65
2023/05/07 03:58:45;;;;;;;13.20;10.50;;;12.90;78.60;;;15.44;55.12;101939.16;5035467;28;20265;-66
2023/05/07 04:01:12;;;;;;;10.90;9.87;;;12.90;78.60;;;15.44;55.09;101936.50;5034893;28;20553;-66
2023/05/07 04:03:39;;;;;;;10.80;9.67;;;12.90;78.50;;;15.46;55.07;101939.84;5034579;28;20199;-65
2023/05/07 04:06:06;;;;;;;9.73;8.80;;;12.90;78.50;;;15.53;54.86;101941.63;5034670;28;20205;-67
2023/05/07 04:08:33;;;;;;;11.37;10.27;;;12.90;78.60;;;15.57;54.74;101942.06;5034503;28;20229;-65
2023/05/07 04:11:01;;;;;;;10.13;9.03;;;12.90;78.60;;;15.59;54.78;101938.25;5034867;28;20201;-65
2023/05/07 04:13:30;;;;;;;9.90;8.90;;;13.00;79.30;;;15.65;54.83;101939.38;5034657;28;20558;-66
2023/05/07 04:15:57;;;;;;;10.83;9.80;;;13.00;78.50;;;15.69;54.49;101945.97;5028635;28;20214;-65
2023/05/07 04:18:24;;;;;;;10.50;9.10;;;13.00;78.40;;;15.70;54.08;101944.97;5034524;28;20675;-65
2023/05/07 04:20:51;;;;;;;10.53;9.43;;;13.10;78.20;;;15.65;54.40;101949.97;5034601;28;20194;-66
2023/05/07 04:23:18;;;;;;;10.93;9.80;;;13.00;78.00;;;15.66;54.42;101953.47;5033301;28;20248;-65
2023/05/07 04:25:45;;;;;;;10.33;9.10;;;13.00;78.00;;;15.56;54.56;101951.88;5034724;28;20764;-65
2023/05/07 04:28:12;;;;;;;9.33;8.23;;;13.00;78.00;;;15.57;54.52;101958.00;5034608;28;20210;-66
2023/05/07 04:30:41;;;;;;;10.50;9.40;;;13.00;78.00;;;15.52;54.54;101958.53;5034520;28;20195;-65
2023/05/07 04:33:08;;;;;;;10.97;8.80;;;13.00;78.10;;;15.48;54.89;101959.91;5033876;28;20197;-64
2023/05/07 04:35:35;;;;;;;10.60;9.50;;;13.00;78.20;;;15.54;54.71;101963.69;5034223;28;20294;-66
2023/05/07 04:38:02;;;;;;;9.57;8.40;;;13.00;78.50;;;15.59;54.93;101958.69;5034359;28;20194;-66
2023/05/07 04:40:29;;;;;;;10.93;9.53;;;13.00;78.40;;;15.62;54.64;101954.84;5034540;28;20190;-66
2023/05/07 04:42:56;;;;;;;9.87;8.87;;;13.00;78.40;;;15.59;54.78;101951.50;5034059;28;20201;-64
2023/05/07 04:45:23;;;;;;;9.30;8.40;;;13.00;78.20;;;15.59;54.81;101956.03;5034399;28;20565;-64
2023/05/07 04:47:52;;;;;;;9.60;8.60;;;13.00;78.30;;;15.65;54.77;101947.34;5035812;28;20194;-64
2023/05/07 04:50:19;;;;;;;9.73;8.73;;;13.10;78.40;;;15.72;54.49;101944.78;5037977;28;20191;-65
2023/05/07 04:52:46;;;;;;;9.03;8.17;;;13.00;78.50;;;15.76;54.60;101952.22;5037404;28;20531;-66
2023/05/07 04:55:13;;;;;;;10.37;9.33;;;13.10;78.30;;;15.75;54.46;101955.88;5034466;28;20214;-65
2023/05/07 04:57:41;;;;;;;11.93;9.77;;;13.10;78.30;;;15.75;54.14;101950.56;5034320;28;20191;-65
2023/05/07 05:00:09;;;;;;;9.87;8.87;;;13.10;78.20;;;15.80;54.08;101958.00;5034015;28;20190;-65
2023/05/07 05:02:37;;;;;;;10.57;9.53;;;13.10;78.30;;;15.79;54.31;101961.66;5034060;28;20221;-65
2023/05/07 05:05:07;;;;;;;9.87;8.80;;;13.10;78.00;;;15.82;54.19;101961.31;5033764;28;20210;-65
2023/05/07 05:07:34;;;;;;;10.47;9.47;;;13.20;77.90;;;15.80;53.93;101968.63;5032087;28;20666;-65
2023/05/07 05:10:03;;;;;;;10.00;9.00;;;13.10;77.60;;;15.75;54.05;101971.81;5033635;28;20186;-65
2023/05/07 05:12:30;;;;;;;10.83;9.63;;;13.20;77.60;;;15.76;54.40;101968.13;5033752;28;20232;-66
2023/05/07 05:14:57;;;;;;;9.93;8.90;;;13.20;77.50;;;15.76;53.88;101962.84;5024849;28;20235;-65
2023/05/07 05:17:24;;;;;;;9.80;8.90;;;13.20;77.20;;;15.72;53.56;101966.84;5013645;28;20198;-66
2023/05/07 05:19:51;;;;;;;9.17;8.37;;;13.20;77.00;;;15.63;53.95;101973.22;5019534;28;20270;-65
2023/05/07 05:22:19;;;;;;;9.90;8.90;;;13.10;76.90;;;15.52;53.91;101976.31;5032897;28;20247;-65
2023/05/07 05:24:47;;;;;;;9.13;8.33;;;13.10;76.90;;;15.42;54.69;101975.66;5032911;28;20219;-65
2023/05/07 05:27:14;;;;;;;8.40;7.60;;;13.00;76.90;;;15.41;54.36;101974.84;5033627;28;20190;-65
2023/05/07 05:29:41;;;;;;;9.73;8.73;;;13.00;77.20;;;15.39;54.82;101976.84;5033044;28;20194;-65
2023/05/07 05:32:08;;;;;;;8.10;7.33;;;13.00;77.20;;;15.39;54.49;101974.19;5033604;28;20194;-64
2023/05/07 05:34:35;;;;;;;8.63;7.83;;;13.00;77.30;;;15.45;54.45;101980.66;5032576;28;20249;-65
2023/05/07 05:37:02;;;;;;;9.00;8.10;;;13.00;78.00;;;15.54;54.37;101991.06;5033734;28;20200;-65
2023/05/07 05:39:30;;;;;;;8.47;7.67;;;13.00;77.40;;;15.55;54.04;101986.53;5033296;28;20264;-65
2023/05/07 05:41:57;;;;;;;8.30;7.50;;;13.00;77.20;;;15.60;54.18;101989.50;5033254;28;20193;-65
2023/05/07 05:44:25;;;;;;;10.27;8.53;;;13.10;77.40;;;15.65;54.05;101992.47;5033172;28;20265;-65
2023/05/07 05:46:54;;;;;;;8.77;7.87;;;13.00;77.20;;;15.73;53.83;101997.72;5033492;28;20194;-66
2023/05/07 05:49:22;;;;;;;8.60;7.80;;;13.10;77.30;;;15.79;53.38;101997.00;5029596;28;20541;-66
2023/05/07 05:51:49;;;;;;;9.03;8.23;;;13.10;77.10;;;15.64;53.54;102001.44;5032531;28;20252;-65
2023/05/07 05:54:16;;;;;;;8.13;7.43;;;13.10;76.50;;;15.53;53.87;101996.53;5032561;28;20210;-64
2023/05/07 05:56:44;;;;;;;8.17;7.47;;;13.10;76.50;;;15.59;53.73;102001.94;5033218;28;20198;-64
2023/05/07 05:59:12;;;;;;;9.10;8.20;;;13.10;76.70;;;15.53;53.44;101999.16;5033316;28;20271;-64
2023/05/07 06:01:39;;;;;;;7.73;7.03;;;13.00;76.50;;;15.51;54.29;101999.34;5032802;28;20195;-65
2023/05/07 06:04:06;;;;;;;8.13;7.50;;;13.10;76.70;;;15.58;53.89;102007.44;5032394;28;20266;-65
2023/05/07 06:06:33;;;;;;;8.47;7.67;;;13.10;76.70;;;15.66;53.71;102002.09;5032769;28;20205;-64
2023/05/07 06:09:00;;;;;;;7.80;7.10;;;13.10;76.70;;;15.72;53.58;102004.03;5033116;28;20647;-65
2023/05/07 06:11:27;;;;;;;8.37;7.57;;;13.10;76.60;;;15.77;53.53;102006.97;5033074;28;20213;-64
2023/05/07 06:13:55;;;;;;;7.00;6.30;;;13.20;76.80;;;15.88;53.40;102013.72;5032561;28;20529;-66
2023/05/07 06:16:22;;;;;;;7.47;6.77;;;13.20;76.70;;;15.95;53.37;102023.41;5032608;28;20243;-65
2023/05/07 06:18:49;;;;;;;7.87;7.27;;;13.30;76.70;;;15.99;53.28;102015.94;5033089;28;20249;-65
2023/05/07 06:21:16;;;;;;;8.17;7.37;;;13.30;76.20;;;15.96;52.89;102011.81;5032599;28;20214;-65
2023/05/07 06:23:43;;;;;;;7.57;6.87;;;13.40;75.60;;;15.94;52.44;102008.50;5032721;28;20551;-65
2023/05/07 06:26:09;;;;;;;7.00;6.30;;;13.40;75.60;;;15.94;52.43;102015.66;5033040;28;20194;-67
2023/05/07 06:28:36;;;;;;;6.33;5.83;;;13.40;75.20;;;15.98;52.43;102015.09;5032428;28;20198;-65
2023/05/07 06:31:16;;;;;;;7.53;6.93;;;13.40;75.50;;;16.01;52.33;102013.94;5033010;28;20293;-65
2023/05/07 06:33:45;;;;;;;6.93;6.33;;;13.40;75.20;;;16.05;52.43;102005.41;5032414;28;20193;-65
2023/05/07 06:36:11;;;;;;;7.00;6.40;;;13.40;75.10;;;16.07;52.15;102008.72;5032753;28;20567;-64
2023/05/07 06:38:38;;;;;;;7.10;6.50;;;13.40;75.00;;;16.06;52.02;102009.75;5033190;28;20202;-65
2023/05/07 06:41:06;;;;;;;7.17;6.37;;;13.40;74.80;;;16.03;51.99;102007.44;5032951;28;20241;-68
2023/05/07 06:43:33;;;;;;;7.53;6.87;;;13.40;74.60;;;15.98;52.03;102009.78;5032385;28;20197;-65
2023/05/07 06:46:00;;;;;;;7.47;6.87;;;13.40;74.30;;;15.85;52.03;102006.94;5032949;28;20187;-63
2023/05/07 06:48:29;;;;;;;7.50;6.87;;;13.40;74.20;;;15.83;52.01;102010.75;5031248;28;20226;-65
2023/05/07 06:50:57;;;;;;;6.53;5.93;;;13.40;74.40;;;15.82;52.15;101999.31;5032754;28;20202;-65
2023/05/07 06:53:24;;;;;;;7.20;6.57;;;13.30;74.40;;;15.96;52.16;101995.88;5035049;28;20203;-65
2023/05/07 06:55:52;;;;;;;7.50;6.80;;;13.40;74.80;;;16.10;51.65;102003.06;5036132;28;20214;-65
2023/05/07 06:58:19;;;;;;;6.53;5.93;;;13.40;74.80;;;16.23;51.96;102003.28;5036453;28;20619;-65
2023/05/07 07:00:46;;;;;;;6.07;5.47;;;13.50;74.90;;;16.38;51.68;102005.94;5035783;28;20190;-65
2023/05/07 07:03:12;;;;;;;6.50;5.83;;;13.60;74.80;;;16.51;51.04;102005.31;5035521;28;20210;-66
2023/05/07 07:05:41;;;;;;;6.70;6.10;;;13.70;74.70;;;16.64;50.87;102002.91;5036243;28;20217;-65
2023/05/07 07:08:09;;;;;;;6.37;5.77;;;13.70;74.10;;;16.68;50.46;102007.66;5035855;28;20658;-65
2023/05/07 07:10:36;;;;;;;6.30;5.80;;;13.80;74.60;;;16.72;50.00;102005.47;5036075;28;20597;-65
2023/05/07 07:13:03;;;;;;;6.83;6.20;;;13.90;73.20;;;16.75;49.66;102010.41;5036053;28;20195;-67
2023/05/07 07:15:30;;;;;;;6.17;5.67;;;13.90;72.80;;;16.69;49.82;102017.28;5022652;28;20314;-65
2023/05/07 07:17:57;;;;;;;6.83;6.23;;;14.00;72.40;;;16.53;50.18;102012.16;5031955;28;20202;-65
2023/05/07 07:20:24;;;;;;;7.37;6.67;;;13.90;72.10;;;16.53;49.86;102013.97;5036096;28;20190;-65
2023/05/07 07:22:52;;;;;;;7.13;6.43;;;13.90;72.00;;;16.46;49.93;102018.31;5035811;28;20190;-64
2023/05/07 07:25:19;;;;;;;6.37;5.80;;;13.90;72.00;;;16.55;50.28;102023.41;5035742;28;20210;-65
2023/05/07 07:27:46;;;;;;;7.03;6.43;;;13.90;72.30;;;16.60;50.22;102031.66;5036441;28;20190;-65
2023/05/07 07:30:13;;;;;;;6.53;5.90;;;14.00;72.40;;;16.64;50.26;102032.16;5035746;28;20187;-65
2023/05/07 07:32:40;;;;;;;8.17;7.47;;;14.00;72.30;;;16.67;49.69;102037.91;5035280;28;20214;-65
2023/05/07 07:35:08;;;;;;;8.13;6.90;;;14.00;72.10;;;16.70;49.87;102026.91;5034616;28;20218;-66
2023/05/07 07:37:35;;;;;;;6.97;6.37;;;14.00;72.00;;;16.82;49.99;102029.94;5035263;28;20210;-65
2023/05/07 07:40:05;;;;;;;7.47;6.77;;;14.10;72.20;;;16.88;49.65;102030.03;5034828;28;20205;-65
2023/05/07 07:42:32;;;;;;;6.70;6.10;;;14.10;71.70;;;16.92;49.43;102041.13;5035459;28;20195;-66
2023/05/07 07:44:59;;;;;;;6.67;6.13;;;14.20;71.70;;;16.98;49.52;102037.72;5034583;28;20595;-65
2023/05/07 07:47:26;;;;;;;7.20;6.60;;;14.20;71.70;;;17.02;49.12;102025.69;5035463;28;20191;-65
2023/05/07 07:49:53;;;;;;;7.07;6.37;;;14.30;71.30;;;16.93;48.92;102037.44;5034947;28;20202;-65
2023/05/07 07:52:20;;;;;;;7.47;6.87;;;14.30;70.80;;;16.79;49.29;102030.31;5034004;28;20199;-65
2023/05/07 07:54:47;;;;;;;8.13;6.80;;;14.20;70.60;;;16.72;49.23;102029.38;5034593;28;20694;-65
2023/05/07 07:57:15;;;;;;;6.77;6.17;;;14.20;70.70;;;16.66;49.41;102032.78;5035176;28;20199;-64
2023/05/07 07:59:43;;;;;;;6.33;5.83;;;14.20;70.70;;;16.67;49.35;102034.41;5034607;28;20199;-64
2023/05/07 08:02:10;;;;;;;6.90;6.30;;;14.20;70.90;;;16.87;49.25;102027.56;5034703;28;20187;-65
2023/05/07 08:04:37;;;;;;;6.47;5.87;;;14.30;71.10;;;17.11;49.05;102029.94;5033854;28;20250;-64
2023/05/07 08:07:05;;;;;;;6.33;5.80;;;14.40;71.30;;;17.32;48.60;102027.34;5033801;28;20647;-65
2023/05/07 08:09:32;;;;;;;6.90;6.30;;;14.50;70.90;;;17.46;48.18;102026.47;5034426;28;20191;-65
2023/05/07 08:11:59;;;;;;;6.47;5.87;;;14.50;70.40;;;17.62;48.01;102032.59;5034678;28;20206;-66
2023/05/07 08:14:28;;;;;;;6.30;5.80;;;14.70;70.40;;;17.58;47.34;102027.66;5033454;28;20222;-65
2023/05/07 08:16:55;;;;;;;6.27;5.77;;;14.70;69.20;;;17.36;47.86;102041.91;5034846;28;20222;-64
2023/05/07 08:19:22;;;;;;;5.33;4.93;;;14.70;68.90;;;17.46;47.96;102038.94;5034134;28;20194;-64
2023/05/07 08:21:49;;;;;;;6.53;5.93;;;14.80;69.40;;;17.59;47.72;102034.63;5034627;28;20197;-66
2023/05/07 08:24:16;;;;;;;6.67;5.23;;;14.90;69.50;;;17.65;47.38;102046.38;5034420;28;20215;-66
2023/05/07 08:26:44;;;;;;;5.63;5.13;;;14.90;68.90;;;17.67;46.92;102046.16;5034078;28;20277;-66
2023/05/07 08:29:13;;;;;;;6.13;5.63;;;14.90;68.80;;;17.68;47.09;102050.50;5033908;28;20313;-66
2023/05/07 08:31:41;;;;;;;6.37;5.77;;;15.00;68.50;;;17.56;47.24;102053.66;5033988;28;20198;-66
2023/05/07 08:34:08;;;;;;;6.13;5.53;;;15.00;68.20;;;17.62;47.08;102049.41;5033806;28;20214;-66
2023/05/07 08:36:36;;;;;;;6.27;5.70;;;15.00;68.30;;;17.59;47.09;102047.94;5033658;28;20293;-67
2023/05/07 08:39:03;;;;;;;5.30;4.90;;;15.00;68.20;;;17.66;47.30;102058.69;5033969;28;20195;-66
2023/05/07 08:41:30;;;;;;;5.97;5.37;;;15.00;68.50;;;17.70;47.17;102051.13;5033724;28;20651;-64
2023/05/07 08:44:00;;;;;;;5.40;4.90;;;15.00;68.40;;;17.63;47.53;102055.56;5033370;28;20558;-66
2023/05/07 08:46:32;;;;;;;6.20;5.70;;;15.00;68.50;;;17.58;47.10;102048.97;5034171;28;20190;-65
2023/05/07 08:49:00;;;;;;;6.37;5.73;;;15.00;67.80;;;17.59;47.09;102050.59;5034262;28;20187;-66
2023/05/07 08:51:27;;;;;;;5.90;5.40;;;15.00;68.00;;;17.57;47.11;102057.94;5034237;28;20195;-66
2023/05/07 08:53:54;;;;;;;6.60;6.10;;;15.00;67.90;;;17.58;47.15;102045.47;5033147;28;20226;-65
2023/05/07 08:56:21;;;;;;;5.67;5.07;;;15.00;67.90;;;17.59;47.10;102055.91;5033494;28;20237;-66
2023/05/07 08:58:49;;;;;;;6.70;6.10;;;15.00;68.00;;;17.62;47.17;102060.06;5033432;28;20202;-67
2023/05/07 09:01:17;;;;;;;6.20;5.70;;;15.10;68.20;;;17.77;47.38;102060.00;5033151;28;20224;-66
2023/05/07 09:03:46;;;;;;;7.30;6.70;;;15.10;68.40;;;17.83;46.83;102053.94;5033287;28;20194;-66
2023/05/07 09:06:16;;;;;;;9.13;6.33;;;15.10;67.90;;;17.91;46.83;102049.31;5033692;28;20186;-67
2023/05/07 09:08:50;;;;;;;6.50;6.00;;;15.20;67.80;;;17.82;46.78;102049.63;5032901;28;20240;-65
2023/05/07 09:11:21;;;;;;;6.57;5.93;;;15.20;67.80;;;17.88;46.87;102049.66;5033640;28;20181;-66
2023/05/07 09:13:49;;;;;;;6.10;5.60;;;15.20;67.80;;;17.94;46.92;102048.09;5032763;28;20187;-66
2023/05/07 09:16:16;;;;;;;6.53;5.97;;;15.30;68.00;;;18.03;47.15;102046.94;5032209;28;20221;-65
2023/05/07 09:18:44;;;;;;;5.87;5.33;;;15.30;68.30;;;18.26;46.94;102047.56;5031664;28;20209;-65
2023/05/07 09:21:16;;;;;;;5.90;5.40;;;15.50;68.40;;;18.56;46.50;102051.75;5032188;28;20281;-67
2023/05/07 09:23:43;;;;;;;6.00;5.43;;;15.60;68.40;;;18.79;45.70;102062.13;5032656;28;20221;-64
2023/05/07 09:26:11;;;;;;;5.67;5.17;;;15.70;67.70;;;19.02;45.08;102064.56;5032794;28;20198;-65
2023/05/07 09:28:40;;;;;;;6.33;5.70;;;15.90;67.50;;;19.23;44.69;102051.09;5033195;28;20201;-66
2023/05/07 09:31:07;;;;;;;6.80;6.30;;;16.00;66.80;;;19.39;44.64;102064.13;5033231;28;20225;-65
2023/05/07 09:33:35;;;;;;;6.13;5.57;;;16.20;66.50;;;19.47;43.89;102058.59;5032676;28;20244;-66
2023/05/07 09:36:03;;;;;;;7.10;6.43;;;16.30;65.80;;;19.62;44.16;102059.28;5032701;28;20210;-66
2023/05/07 09:38:32;;;;;;;6.30;5.80;;;16.50;66.00;;;19.72;43.47;102062.38;5032933;28;20209;-66
2023/05/07 09:41:04;;;;;;;7.33;6.63;;;16.50;65.00;;;19.73;43.22;102057.88;5032723;28;20205;-66
2023/05/07 09:43:34;;;;;;;7.77;6.20;;;16.70;64.60;;;19.69;43.26;102062.78;5032520;28;20237;-67
2023/05/07 09:46:06;;;;;;;7.10;6.50;;;16.70;64.40;;;19.74;43.18;102056.81;5032794;28;20187;-66
2023/05/07 09:48:39;;;;;;;6.80;6.30;;;16.70;64.20;;;19.87;43.10;102055.00;5033122;28;20195;-67
2023/05/07 09:51:18;;;;;;;6.73;6.13;;;16.80;64.40;;;20.01;42.99;102055.88;5033660;28;20194;-66
2023/05/07 09:53:48;;;;;;;6.83;6.27;;;16.90;64.00;;;20.10;42.99;102055.47;5032938;28;20195;-68
2023/05/07 09:56:16;;;;;;;7.40;6.70;;;17.00;63.90;;;20.15;42.94;102049.50;5033128;28;20198;-67
2023/05/07 09:58:45;;;;;;;7.33;6.63;;;17.10;63.60;;;20.31;42.73;102056.31;5033105;28;20191;-66
2023/05/07 10:01:13;;;;;;;6.90;6.20;;;17.10;63.40;;;20.55;41.80;102053.84;5032703;28;20195;-66
2023/05/07 10:03:41;;;;;;;6.30;5.80;;;17.20;63.20;;;20.78;41.27;102054.19;5032300;28;20194;-67
2023/05/07 10:06:10;;;;;;;7.23;6.63;;;17.40;62.50;;;20.84;40.82;102055.22;5032912;28;20201;-67
2023/05/07 10:08:37;;;;;;;8.00;7.20;;;17.40;61.10;;;20.66;40.25;102055.03;5031784;28;20194;-66
2023/05/07 10:11:06;;;;;;;6.57;5.97;;;17.50;60.50;;;20.66;41.47;102047.00;5032698;28;20630;-66